createdAt,value
2019-05-02T00:01:05.572Z,10.20
2019-05-02T00:03:41.242Z,10.13
2019-05-02T00:06:09.498Z,10.03
2019-05-02T00:08:40.384Z,9.93
2019-05-02T00:11:12.245Z,9.83
2019-05-02T00:13:43.317Z,9.75
2019-05-02T00:16:15.386Z,9.67
2019-05-02T00:18:46.881Z,9.59
2019-05-02T00:21:17.255Z,9.53
2019-05-02T00:23:47.937Z,9.48
2019-05-02T00:26:18.138Z,9.44
2019-05-02T00:28:49.859Z,9.37
2019-05-02T00:31:21.687Z,9.35
2019-05-02T00:33:52.313Z,9.24
2019-05-02T00:36:22.935Z,9.18
2019-05-02T00:38:54.632Z,9.15
2019-05-02T00:41:26.073Z,9.16
2019-05-02T00:43:56.296Z,9.23
2019-05-02T00:46:30.262Z,9.28
2019-05-02T00:49:01.798Z,9.39
2019-05-02T00:51:31.625Z,9.54
2019-05-02T00:54:01.927Z,9.70
2019-05-02T00:56:32.160Z,9.80
2019-05-02T00:59:07.367Z,9.91
2019-05-02T01:01:39.604Z,10.03
2019-05-02T01:04:14.657Z,10.14
2019-05-02T01:06:49.380Z,10.26
2019-05-02T01:09:17.628Z,10.37
2019-05-02T01:11:48.256Z,10.48
2019-05-02T01:14:19.813Z,10.57
2019-05-02T01:16:54.331Z,10.69
2019-05-02T01:19:23.329Z,10.75
2019-05-02T01:21:54.626Z,10.79
2019-05-02T01:24:25.271Z,10.83
2019-05-02T01:27:04.567Z,10.81
2019-05-02T01:29:36.667Z,10.81
2019-05-02T01:32:17.678Z,10.86
2019-05-02T01:34:54.439Z,10.80
2019-05-02T01:37:29.501Z,10.72
2019-05-02T01:39:59.832Z,10.69
2019-05-02T01:42:39.668Z,10.69
2019-05-02T01:45:02.210Z,10.67
2019-05-02T01:47:34.062Z,10.69
2019-05-02T01:50:06.710Z,10.74
2019-05-02T01:52:37.304Z,10.82
2019-05-02T01:55:08.896Z,10.90
2019-05-02T01:57:39.974Z,10.92
2019-05-02T02:00:13.450Z,10.96
2019-05-02T02:02:44.100Z,10.99
2019-05-02T02:05:14.950Z,11.02
2019-05-02T02:07:45.598Z,11.08
2019-05-02T02:10:19.851Z,11.10
2019-05-02T02:13:02.862Z,11.15
2019-05-02T02:15:25.194Z,11.19
2019-05-02T02:17:53.404Z,11.22
2019-05-02T02:20:28.282Z,11.29
2019-05-02T02:23:03.432Z,11.29
2019-05-02T02:25:52.208Z,11.30
2019-05-02T02:28:22.807Z,11.34
2019-05-02T02:30:58.057Z,11.34
2019-05-02T02:33:25.427Z,11.38
2019-05-02T02:35:56.272Z,11.38
2019-05-02T02:38:33.626Z,11.38
2019-05-02T02:40:59.879Z,11.40
2019-05-02T02:43:34.870Z,11.41
2019-05-02T02:46:10.384Z,11.42
2019-05-02T02:48:42.675Z,11.43
2019-05-02T02:51:22.239Z,11.45
2019-05-02T02:53:45.176Z,11.47
2019-05-02T02:56:15.832Z,11.45
2019-05-02T02:58:48.092Z,11.48
2019-05-02T03:01:27.458Z,11.48
2019-05-02T03:03:51.062Z,11.48
2019-05-02T03:06:21.734Z,11.50
2019-05-02T03:08:52.375Z,11.54
2019-05-02T03:11:25.585Z,11.55
2019-05-02T03:14:07.561Z,11.54
2019-05-02T03:16:46.051Z,11.54
2019-05-02T03:19:07.144Z,11.55
2019-05-02T03:21:40.029Z,11.58
2019-05-02T03:24:10.579Z,11.61
2019-05-02T03:26:40.834Z,11.66
2019-05-02T03:29:12.278Z,11.65
2019-05-02T03:31:42.989Z,11.54
2019-05-02T03:34:13.696Z,11.45
2019-05-02T03:36:44.498Z,11.32
2019-05-02T03:39:17.420Z,11.26
2019-05-02T03:41:47.277Z,11.25
2019-05-02T03:44:25.138Z,11.28
2019-05-02T03:46:54.166Z,11.34
2019-05-02T03:49:21.923Z,11.36
2019-05-02T03:51:56.075Z,11.40
2019-05-02T03:54:24.826Z,11.44
2019-05-02T03:56:55.495Z,11.50
2019-05-02T03:59:37.716Z,11.61
2019-05-02T04:01:59.445Z,11.66
2019-05-02T04:04:30.491Z,11.76
2019-05-02T04:07:01.540Z,11.86
2019-05-02T04:09:42.462Z,12.06
2019-05-02T04:12:18.531Z,12.08
2019-05-02T04:14:41.050Z,12.09
2019-05-02T04:17:12.206Z,12.13
2019-05-02T04:19:42.876Z,12.12
2019-05-02T04:22:15.227Z,12.17
2019-05-02T04:24:54.194Z,12.31
2019-05-02T04:27:19.799Z,12.46
2019-05-02T04:29:51.271Z,12.43
2019-05-02T04:32:21.479Z,12.44
2019-05-02T04:34:55.074Z,12.43
2019-05-02T04:37:24.188Z,12.51
2019-05-02T04:39:59.180Z,12.56
2019-05-02T04:42:29.132Z,12.55
2019-05-02T04:45:14.058Z,12.58
2019-05-02T04:47:30.781Z,12.50
2019-05-02T04:50:07.647Z,12.49
2019-05-02T04:52:38.498Z,12.59
2019-05-02T04:55:19.924Z,12.70
2019-05-02T04:57:47.087Z,12.94
2019-05-02T05:00:13.693Z,13.11
2019-05-02T05:02:43.932Z,13.23
2019-05-02T05:05:17.194Z,13.39
2019-05-02T05:07:49.304Z,13.61
2019-05-02T05:10:18.732Z,13.82
2019-05-02T05:12:49.311Z,13.95
2019-05-02T05:15:35.936Z,13.93
2019-05-02T05:17:51.534Z,13.93
2019-05-02T05:20:22.105Z,14.04
2019-05-02T05:22:52.414Z,14.11
2019-05-02T05:25:42.150Z,14.35
2019-05-02T05:28:12.363Z,14.39
2019-05-02T05:30:45.438Z,14.61
2019-05-02T05:33:14.875Z,14.61
2019-05-02T05:35:48.772Z,14.76
2019-05-02T05:38:18.256Z,15.10
2019-05-02T05:40:50.310Z,15.43
2019-05-02T05:43:21.286Z,15.69
2019-05-02T05:45:56.418Z,16.10
2019-05-02T05:48:24.276Z,16.20
2019-05-02T05:50:54.598Z,16.25
2019-05-02T05:53:24.811Z,16.34
2019-05-02T05:55:58.989Z,16.33
2019-05-02T05:58:28.942Z,16.58
2019-05-02T06:00:59.976Z,16.74
2019-05-02T06:03:34.092Z,17.24
2019-05-02T06:06:02.705Z,17.22
2019-05-02T06:08:33.337Z,16.92
2019-05-02T06:11:03.689Z,16.55
2019-05-02T06:13:34.383Z,16.24
2019-05-02T06:16:05.013Z,15.99
2019-05-02T06:18:36.516Z,15.95
2019-05-02T06:21:08.840Z,15.94
2019-05-02T06:23:41.551Z,15.94
2019-05-02T06:26:13.478Z,15.76
2019-05-02T06:28:44.368Z,15.47
2019-05-02T06:31:17.067Z,15.21
2019-05-02T06:33:47.051Z,14.89
2019-05-02T06:36:17.610Z,14.82
2019-05-02T06:38:52.267Z,14.78
2019-05-02T06:41:22.183Z,14.72
2019-05-02T06:43:52.892Z,14.48
2019-05-02T06:46:27.477Z,14.45
2019-05-02T06:48:55.554Z,14.45
2019-05-02T06:51:25.902Z,14.72
2019-05-02T06:53:57.116Z,15.28
2019-05-02T06:56:27.774Z,15.51
2019-05-02T06:59:01.106Z,15.83
2019-05-02T07:01:32.515Z,17.03
2019-05-02T07:04:04.351Z,17.13
2019-05-02T07:06:55.923Z,16.91
2019-05-02T07:09:07.827Z,16.81
2019-05-02T07:11:40.628Z,16.73
2019-05-02T07:14:13.540Z,17.78
2019-05-02T07:16:44.428Z,17.79
2019-05-02T07:19:16.675Z,17.85
2019-05-02T07:21:47.411Z,17.92
2019-05-02T07:24:17.714Z,17.89
2019-05-02T07:26:52.057Z,18.14
2019-05-02T07:29:21.805Z,20.00
2019-05-02T07:31:53.631Z,20.82
2019-05-02T07:34:24.898Z,20.54
2019-05-02T07:36:56.454Z,20.08
2019-05-02T07:39:27.085Z,20.68
2019-05-02T07:42:00.656Z,21.33
2019-05-02T07:44:32.566Z,22.20
2019-05-02T07:47:02.959Z,24.04
2019-05-02T07:49:34.581Z,25.82
2019-05-02T07:52:05.138Z,24.97
2019-05-02T07:54:35.353Z,25.44
2019-05-02T07:57:06.083Z,24.78
2019-05-02T07:59:36.722Z,24.00
2019-05-02T08:02:07.226Z,22.61
2019-05-02T08:04:37.751Z,22.92
2019-05-02T08:07:08.133Z,23.17
2019-05-02T08:09:42.125Z,24.16
2019-05-02T08:12:13.275Z,25.36
2019-05-02T08:14:44.039Z,25.75
2019-05-02T08:17:17.220Z,24.88
2019-05-02T08:19:47.040Z,24.00
2019-05-02T08:22:19.013Z,22.82
2019-05-02T08:24:49.521Z,22.27
2019-05-02T08:27:22.871Z,22.84
2019-05-02T08:29:53.475Z,22.30
2019-05-02T08:32:24.098Z,21.75
2019-05-02T08:34:54.387Z,21.02
2019-05-02T08:37:25.400Z,20.67
2019-05-02T08:39:56.050Z,21.13
2019-05-02T08:42:27.657Z,21.51
2019-05-02T08:45:00.999Z,21.10
2019-05-02T08:47:31.052Z,20.67
2019-05-02T08:50:01.770Z,19.94
2019-05-02T08:52:36.875Z,19.68
2019-05-02T08:55:09.744Z,19.44
2019-05-02T08:57:38.533Z,19.14
2019-05-02T09:00:11.666Z,19.09
2019-05-02T09:02:42.402Z,19.19
2019-05-02T09:05:13.069Z,19.65
2019-05-02T09:07:43.711Z,19.83
2019-05-02T09:10:15.816Z,21.45
2019-05-02T09:12:46.157Z,23.23
2019-05-02T09:15:17.418Z,25.00
2019-05-02T09:17:53.042Z,25.69
2019-05-02T09:20:21.474Z,26.31
2019-05-02T09:22:55.925Z,26.73
2019-05-02T09:25:24.947Z,26.02
2019-05-02T09:27:55.256Z,25.19
2019-05-02T09:30:26.047Z,24.37
2019-05-02T09:32:57.043Z,23.05
2019-05-02T09:35:28.695Z,22.03
2019-05-02T09:37:58.937Z,20.97
2019-05-02T09:40:29.156Z,20.51
2019-05-02T09:43:02.116Z,20.40
2019-05-02T09:45:37.315Z,20.50
2019-05-02T09:48:08.170Z,20.81
2019-05-02T09:50:39.411Z,20.67
2019-05-02T09:53:13.259Z,20.34
2019-05-02T09:55:49.575Z,19.91
2019-05-02T09:58:19.685Z,20.30
2019-05-02T10:00:52.490Z,20.16
2019-05-02T10:03:23.180Z,20.22
2019-05-02T10:05:54.092Z,20.26
2019-05-02T10:08:24.419Z,20.00
2019-05-02T10:11:04.503Z,19.74
2019-05-02T10:13:34.729Z,19.66
2019-05-02T10:16:05.225Z,19.86
2019-05-02T10:18:35.458Z,19.62
2019-05-02T10:21:07.801Z,19.27
2019-05-02T10:23:38.281Z,19.04
2019-05-02T10:26:12.973Z,18.97
2019-05-02T10:28:49.308Z,18.90
2019-05-02T10:31:18.130Z,18.86
2019-05-02T10:33:48.423Z,18.41
2019-05-02T10:36:19.912Z,18.18
2019-05-02T10:38:59.173Z,18.49
2019-05-02T10:41:39.188Z,18.67
2019-05-02T10:44:14.233Z,18.84
2019-05-02T10:46:52.186Z,18.93
2019-05-02T10:49:24.069Z,18.98
2019-05-02T10:51:57.594Z,18.90
2019-05-02T10:54:33.690Z,18.83
2019-05-02T10:57:02.297Z,18.66
2019-05-02T10:59:33.059Z,18.43
2019-05-02T11:02:05.146Z,18.26
2019-05-02T11:04:37.433Z,18.45
2019-05-02T11:07:07.738Z,18.62
2019-05-02T11:09:38.242Z,18.70
2019-05-02T11:12:11.855Z,18.64
2019-05-02T11:14:52.915Z,18.62
2019-05-02T11:17:36.893Z,18.78
2019-05-02T11:20:09.191Z,18.91
2019-05-02T11:22:39.592Z,18.90
2019-05-02T11:25:12.088Z,18.86
2019-05-02T11:27:42.458Z,19.06
2019-05-02T11:30:16.892Z,19.14
2019-05-02T11:32:46.142Z,19.21
2019-05-02T11:35:16.384Z,19.31
2019-05-02T11:37:46.999Z,18.89
2019-05-02T11:40:17.359Z,18.58
2019-05-02T11:42:47.965Z,18.58
2019-05-02T11:45:18.341Z,18.71
2019-05-02T11:47:49.037Z,18.77
2019-05-02T11:50:19.704Z,18.76
2019-05-02T11:52:52.291Z,18.31
2019-05-02T11:55:24.705Z,18.09
2019-05-02T11:57:54.537Z,17.87
2019-05-02T12:00:25.201Z,17.42
2019-05-02T12:03:12.744Z,17.19
2019-05-02T12:05:44.014Z,17.26
2019-05-02T12:08:14.500Z,17.53
2019-05-02T12:10:45.131Z,17.63
2019-05-02T12:13:16.142Z,17.33
2019-05-02T12:15:47.011Z,17.16
2019-05-02T12:18:20.369Z,16.92
2019-05-02T12:20:53.545Z,16.78
2019-05-02T12:23:24.199Z,16.89
2019-05-02T12:25:55.124Z,17.08
2019-05-02T12:28:26.030Z,17.10
2019-05-02T12:30:56.635Z,16.84
2019-05-02T12:33:28.515Z,16.68
2019-05-02T12:35:59.578Z,16.80
2019-05-02T12:38:32.340Z,16.87
2019-05-02T12:41:02.680Z,16.83
2019-05-02T12:43:33.132Z,16.72
2019-05-02T12:46:04.223Z,16.60
2019-05-02T12:48:34.611Z,16.57
2019-05-02T12:51:04.989Z,16.59
2019-05-02T12:53:35.244Z,16.68
2019-05-02T12:56:06.081Z,16.83
2019-05-02T12:58:36.393Z,16.62
2019-05-02T13:01:06.610Z,16.42
2019-05-02T13:03:56.729Z,16.21
2019-05-02T13:06:27.291Z,15.99
2019-05-02T13:08:57.803Z,15.67
2019-05-02T13:11:46.101Z,15.37
2019-05-02T13:14:19.917Z,15.32
2019-05-02T13:16:53.633Z,15.33
2019-05-02T13:19:36.805Z,15.22
2019-05-02T13:21:59.700Z,15.20
2019-05-02T13:24:34.880Z,15.21
2019-05-02T13:27:07.615Z,15.19
2019-05-02T13:29:38.605Z,15.05
2019-05-02T13:32:18.687Z,14.98
2019-05-02T13:34:56.880Z,14.79
2019-05-02T13:37:27.215Z,14.82
2019-05-02T13:40:02.695Z,14.92
2019-05-02T13:42:35.112Z,15.07
2019-05-02T13:45:15.593Z,15.15
2019-05-02T13:47:46.262Z,15.26
2019-05-02T13:50:17.014Z,15.31
2019-05-02T13:52:53.148Z,15.33
2019-05-02T13:55:20.805Z,15.25
2019-05-02T13:57:52.836Z,15.20
2019-05-02T14:00:34.653Z,15.19
2019-05-02T14:03:05.200Z,15.21
2019-05-02T14:05:42.180Z,15.09
2019-05-02T14:08:35.400Z,14.85
2019-05-02T14:11:08.564Z,14.61
2019-05-02T14:13:42.495Z,14.47
2019-05-02T14:16:12.352Z,14.55
2019-05-02T14:18:42.578Z,14.55
2019-05-02T14:21:13.162Z,14.67
2019-05-02T14:23:43.494Z,14.79
2019-05-02T14:26:26.919Z,14.81
2019-05-02T14:28:46.144Z,14.96
2019-05-02T14:31:16.798Z,15.01
2019-05-02T14:33:48.733Z,15.10
2019-05-02T14:36:19.360Z,15.17
2019-05-02T14:38:49.758Z,15.15
2019-05-02T14:41:22.194Z,15.16
2019-05-02T14:43:54.023Z,15.16
2019-05-02T14:46:34.305Z,15.23
2019-05-02T14:48:58.052Z,15.16
2019-05-02T14:51:28.629Z,14.95
2019-05-02T14:54:03.582Z,14.91
2019-05-02T14:56:48.716Z,14.88
2019-05-02T14:59:20.046Z,14.78
2019-05-02T15:01:52.873Z,14.81
2019-05-02T15:04:23.419Z,14.78
2019-05-02T15:06:54.519Z,14.63
2019-05-02T15:09:26.757Z,14.60
2019-05-02T15:12:02.926Z,14.65
2019-05-02T15:14:34.495Z,14.67
2019-05-02T15:17:07.654Z,14.71
2019-05-02T15:19:38.102Z,14.73
2019-05-02T15:22:09.049Z,14.70
2019-05-02T15:24:39.432Z,14.76
2019-05-02T15:27:13.344Z,14.67
2019-05-02T15:29:42.120Z,14.48
2019-05-02T15:32:14.948Z,14.42
2019-05-02T15:34:57.460Z,14.31
2019-05-02T15:37:28.660Z,14.25
2019-05-02T15:42:32.294Z,14.02
2019-05-02T15:45:05.604Z,13.94
2019-05-02T15:47:37.006Z,13.93
2019-05-02T15:50:08.033Z,13.99
2019-05-02T15:52:41.949Z,14.00
2019-05-02T15:55:12.542Z,13.93
2019-05-02T15:57:45.884Z,13.84
2019-05-02T16:00:23.008Z,13.82
2019-05-02T16:02:51.713Z,13.82
2019-05-02T16:05:23.850Z,13.74
2019-05-02T16:08:05.280Z,13.72
2019-05-02T16:10:26.765Z,13.65
2019-05-02T16:12:59.548Z,13.56
2019-05-02T16:15:29.610Z,13.58
2019-05-02T16:18:01.929Z,13.49
2019-05-02T16:20:47.271Z,13.38
2019-05-02T16:23:19.493Z,13.36
2019-05-02T16:25:48.730Z,13.36
2019-05-02T16:28:19.033Z,13.30
2019-05-02T16:30:52.585Z,13.26
2019-05-02T16:33:22.955Z,13.16
2019-05-02T16:35:54.633Z,13.09
2019-05-02T16:38:26.851Z,13.11
2019-05-02T16:41:01.689Z,13.11
2019-05-02T16:43:32.842Z,13.08
2019-05-02T16:46:06.623Z,13.23
2019-05-02T16:48:37.608Z,13.26
2019-05-02T16:51:27.663Z,13.27
2019-05-02T16:53:42.641Z,13.20
2019-05-02T16:56:14.250Z,13.15
2019-05-02T16:58:47.061Z,13.06
2019-05-02T17:01:26.620Z,12.95
2019-05-02T17:03:50.140Z,12.91
2019-05-02T17:06:25.840Z,12.89
2019-05-02T17:08:58.421Z,12.92
2019-05-02T17:11:34.497Z,12.77
2019-05-02T17:14:07.017Z,12.68
2019-05-02T17:16:35.077Z,12.68
2019-05-02T17:19:05.860Z,12.66
2019-05-02T17:21:52.435Z,12.57
2019-05-02T17:24:08.512Z,12.49
2019-05-02T17:26:39.274Z,12.38
2019-05-02T17:29:11.842Z,12.21
2019-05-02T17:31:42.682Z,12.09
2019-05-02T17:34:14.886Z,12.05
2019-05-02T17:36:45.831Z,12.02
2019-05-02T17:39:18.754Z,11.97
2019-05-02T17:41:48.924Z,11.88
2019-05-02T17:44:22.130Z,11.72
2019-05-02T17:46:58.203Z,11.64
2019-05-02T17:49:34.890Z,11.52
2019-05-02T17:52:19.118Z,11.42
2019-05-02T17:54:46.894Z,11.21
2019-05-02T17:57:17.097Z,11.13
2019-05-02T17:59:47.399Z,11.06
2019-05-02T18:02:17.970Z,11.03
2019-05-02T18:04:52.041Z,10.86
2019-05-02T18:07:25.036Z,10.76
2019-05-02T18:09:52.727Z,10.81
2019-05-02T18:12:22.925Z,10.78
2019-05-02T18:14:58.963Z,10.60
2019-05-02T18:17:31.783Z,10.54
2019-05-02T18:20:05.830Z,10.52
2019-05-02T18:22:34.932Z,10.43
2019-05-02T18:25:07.635Z,10.37
2019-05-02T18:27:38.210Z,10.37
2019-05-02T18:30:09.789Z,10.33
2019-05-02T18:32:42.017Z,10.24
2019-05-02T18:35:13.157Z,10.26
2019-05-02T18:37:46.724Z,10.25
2019-05-02T18:40:20.142Z,10.23
2019-05-02T18:42:48.138Z,10.20
2019-05-02T18:45:28.475Z,10.16
2019-05-02T18:48:02.170Z,10.14
2019-05-02T18:50:36.755Z,10.09
2019-05-02T18:53:07.335Z,10.05
2019-05-02T18:55:38.085Z,10.05
2019-05-02T18:58:09.226Z,10.05
2019-05-02T19:00:42.055Z,10.00
2019-05-02T19:03:17.083Z,10.00
2019-05-02T19:05:46.693Z,10.00
2019-05-02T19:08:30.623Z,9.95
2019-05-02T19:11:05.422Z,9.95
2019-05-02T19:13:24.692Z,9.88
2019-05-02T19:15:54.980Z,9.83
2019-05-02T19:18:25.554Z,9.77
2019-05-02T19:20:59.354Z,9.73
2019-05-02T19:23:31.875Z,9.71
2019-05-02T19:26:10.037Z,9.69
2019-05-02T19:28:42.987Z,9.64
2019-05-02T19:31:14.700Z,9.67
2019-05-02T19:33:44.998Z,9.71
2019-05-02T19:36:16.359Z,9.61
2019-05-02T19:38:47.504Z,9.55
2019-05-02T19:41:17.794Z,9.48
2019-05-02T19:43:49.752Z,9.49
2019-05-02T19:46:24.474Z,9.48
2019-05-02T19:48:55.256Z,9.46
2019-05-02T19:51:28.097Z,9.40
2019-05-02T19:53:59.614Z,9.31
2019-05-02T19:56:33.376Z,9.25
2019-05-02T19:59:03.959Z,9.19
2019-05-02T20:01:36.160Z,9.17
2019-05-02T20:04:09.490Z,9.18
2019-05-02T20:06:41.884Z,9.14
2019-05-02T20:09:12.444Z,9.11
2019-05-02T20:11:42.733Z,9.08
2019-05-02T20:14:13.810Z,9.05
2019-05-02T20:16:49.219Z,9.06
2019-05-02T20:19:23.123Z,9.04
2019-05-02T20:22:01.654Z,9.02
2019-05-02T20:24:33.610Z,8.97
2019-05-02T20:27:04.933Z,8.86
2019-05-02T20:29:35.215Z,8.85
2019-05-02T20:32:05.804Z,8.83
2019-05-02T20:34:37.084Z,8.80
2019-05-02T20:37:07.554Z,8.76
2019-05-02T20:39:37.879Z,8.72
2019-05-02T20:42:08.509Z,8.73
2019-05-02T20:44:39.218Z,8.70
2019-05-02T20:47:13.459Z,8.67
2019-05-02T20:49:47.865Z,8.65
2019-05-02T20:52:18.562Z,8.56
2019-05-02T20:54:49.674Z,8.48
2019-05-02T20:57:19.955Z,8.44
2019-05-02T20:59:52.496Z,8.43
2019-05-02T21:02:22.675Z,8.39
2019-05-02T21:04:52.918Z,8.38
2019-05-02T21:07:34.313Z,8.32
2019-05-02T21:10:13.927Z,8.31
2019-05-02T21:12:44.260Z,8.26
2019-05-02T21:15:14.603Z,8.18
2019-05-02T21:17:45.419Z,8.18
2019-05-02T21:20:16.102Z,8.15
2019-05-02T21:22:46.857Z,8.12
2019-05-02T21:25:17.645Z,8.13
2019-05-02T21:27:48.696Z,8.12
2019-05-02T21:30:22.015Z,8.09
2019-05-02T21:32:52.247Z,8.05
2019-05-02T21:35:22.472Z,8.03
2019-05-02T21:37:53.032Z,7.97
2019-05-02T21:40:25.773Z,7.94
2019-05-02T21:42:56.156Z,7.96
2019-05-02T21:45:26.471Z,7.96
2019-05-02T21:47:57.132Z,7.94
2019-05-02T21:50:33.710Z,7.90
2019-05-02T21:53:17.906Z,7.87
2019-05-02T21:55:56.209Z,7.88
2019-05-02T21:58:26.512Z,7.94
2019-05-02T22:01:12.956Z,7.89
2019-05-02T22:03:43.150Z,7.95
2019-05-02T22:06:13.761Z,7.89
2019-05-02T22:08:44.460Z,7.89
2019-05-02T22:11:14.934Z,7.94
2019-05-02T22:13:45.576Z,7.94
2019-05-02T22:16:16.271Z,7.92
2019-05-02T22:18:47.607Z,7.94
2019-05-02T22:21:18.198Z,7.87
2019-05-02T22:23:48.908Z,7.86
2019-05-02T22:26:19.227Z,7.86
2019-05-02T22:28:49.901Z,7.92
2019-05-02T22:31:22.741Z,7.91
2019-05-02T22:33:53.376Z,7.93
2019-05-02T22:36:23.891Z,8.01
2019-05-02T22:38:56.138Z,7.96
2019-05-02T22:41:26.824Z,7.95
2019-05-02T22:43:57.420Z,8.04
2019-05-02T22:46:43.131Z,8.07
2019-05-02T22:49:16.475Z,8.01
2019-05-02T22:51:46.844Z,8.04
2019-05-02T22:54:26.601Z,8.04
2019-05-02T22:56:49.408Z,8.03
2019-05-02T22:59:19.782Z,8.02
2019-05-02T23:01:52.811Z,8.04
2019-05-02T23:04:23.663Z,8.01
2019-05-02T23:06:54.527Z,8.09
2019-05-02T23:09:25.326Z,8.06
2019-05-02T23:11:56.023Z,8.04
2019-05-02T23:14:26.508Z,8.04
2019-05-02T23:16:56.725Z,8.00
2019-05-02T23:19:26.960Z,8.00
2019-05-02T23:21:57.509Z,7.96
2019-05-02T23:24:37.001Z,7.98
2019-05-02T23:27:03.359Z,7.90
2019-05-02T23:29:33.993Z,7.91
2019-05-02T23:32:04.633Z,7.90
2019-05-02T23:34:34.937Z,7.87
2019-05-02T23:37:07.276Z,7.80
2019-05-02T23:39:37.914Z,7.78
2019-05-02T23:42:08.194Z,7.76
2019-05-02T23:44:38.898Z,7.72
2019-05-02T23:47:09.275Z,7.68
2019-05-02T23:49:39.829Z,7.70
2019-05-02T23:52:11.756Z,7.64
2019-05-02T23:54:50.084Z,7.61
2019-05-02T23:57:14.500Z,7.56
2019-05-02T23:59:45.707Z,7.58
